createdAt,value
2022-11-22T00:00:59.235Z,98315.38
2022-11-22T00:03:49.191Z,98320.82
2022-11-22T00:06:38.982Z,98322.33
2022-11-22T00:09:29.099Z,98318.81
2022-11-22T00:12:19.042Z,98314.20
2022-11-22T00:15:11.016Z,98309.57
2022-11-22T00:18:00.867Z,98308.77
2022-11-22T00:20:50.634Z,98309.53
2022-11-22T00:23:44.054Z,98305.67
2022-11-22T00:26:34.070Z,98306.37
2022-11-22T00:29:24.051Z,98308.09
2022-11-22T00:32:14.070Z,98308.11
2022-11-22T00:35:05.004Z,98310.55
2022-11-22T00:37:54.774Z,98309.80
2022-11-22T00:40:44.799Z,98306.44
2022-11-22T00:43:34.678Z,98297.33
2022-11-22T00:46:26.266Z,98294.00
2022-11-22T00:49:16.058Z,98290.47
2022-11-22T00:52:09.327Z,98288.70
2022-11-22T00:55:01.201Z,98291.59
2022-11-22T00:57:53.690Z,98289.20
2022-11-22T01:00:43.554Z,98291.09
2022-11-22T01:03:33.836Z,98291.59
2022-11-22T01:06:23.562Z,98298.17
2022-11-22T01:09:19.195Z,98292.91
2022-11-22T01:12:11.339Z,98283.87
2022-11-22T01:15:02.567Z,98278.88
2022-11-22T01:17:52.465Z,98279.31
2022-11-22T01:20:42.288Z,98280.91
2022-11-22T01:23:32.033Z,98282.34
2022-11-22T01:26:22.102Z,98284.29
2022-11-22T01:29:11.943Z,98282.35
2022-11-22T01:32:02.044Z,98277.21
2022-11-22T01:34:51.750Z,98277.72
2022-11-22T01:37:41.406Z,98277.16
2022-11-22T01:40:31.324Z,98277.91
2022-11-22T01:43:23.168Z,98280.52
2022-11-22T01:46:24.190Z,98282.48
2022-11-22T01:49:21.486Z,98282.75
2022-11-22T01:52:15.483Z,98282.59
2022-11-22T01:55:09.588Z,98282.96
2022-11-22T01:58:00.970Z,98281.83
2022-11-22T02:00:53.441Z,98280.78
2022-11-22T02:03:47.026Z,98283.81
2022-11-22T02:06:42.885Z,98279.64
2022-11-22T02:09:34.604Z,98276.94
2022-11-22T02:12:28.690Z,98282.77
2022-11-22T02:15:18.119Z,98284.05
2022-11-22T02:18:08.261Z,98284.15
2022-11-22T02:20:59.334Z,98287.13
2022-11-22T02:23:59.945Z,98289.01
2022-11-22T02:26:48.076Z,98290.48
2022-11-22T02:29:38.596Z,98293.39
2022-11-22T02:32:27.152Z,98295.10
2022-11-22T02:35:21.817Z,98299.95
2022-11-22T02:38:15.806Z,98308.88
2022-11-22T02:41:09.499Z,98318.08
2022-11-22T02:43:59.614Z,98323.05
2022-11-22T02:46:51.899Z,98323.50
2022-11-22T02:49:42.097Z,98322.06
2022-11-22T02:52:31.882Z,98323.83
2022-11-22T02:55:21.569Z,98321.75
2022-11-22T02:58:12.259Z,98320.93
2022-11-22T03:01:02.014Z,98326.94
2022-11-22T03:03:51.970Z,98326.11
2022-11-22T03:06:43.109Z,98324.83
2022-11-22T03:09:33.233Z,98325.16
2022-11-22T03:12:22.054Z,98324.19
2022-11-22T03:15:12.832Z,98324.00
2022-11-22T03:18:04.594Z,98324.33
2022-11-22T03:20:54.824Z,98318.79
2022-11-22T03:23:44.629Z,98318.58
2022-11-22T03:26:34.519Z,98313.12
2022-11-22T03:29:24.262Z,98316.55
2022-11-22T03:32:14.054Z,98321.30
2022-11-22T03:35:04.285Z,98324.17
2022-11-22T03:37:53.976Z,98326.11
2022-11-22T03:40:47.725Z,98328.44
2022-11-22T03:43:37.538Z,98332.64
2022-11-22T03:46:27.210Z,98330.31
2022-11-22T03:49:17.135Z,98326.36
2022-11-22T03:52:07.437Z,98328.84
2022-11-22T03:54:57.497Z,98332.55
2022-11-22T03:57:47.306Z,98343.71
2022-11-22T04:00:38.596Z,98350.98
2022-11-22T04:03:28.122Z,98352.29
2022-11-22T04:06:17.789Z,98344.97
2022-11-22T04:09:07.567Z,98345.55
2022-11-22T04:11:57.271Z,98340.39
2022-11-22T04:15:04.876Z,98340.54
2022-11-22T04:17:54.736Z,98345.67
2022-11-22T04:21:02.813Z,98349.45
2022-11-22T04:24:06.844Z,98359.59
2022-11-22T04:26:57.474Z,98368.89
2022-11-22T04:29:46.052Z,98372.87
2022-11-22T04:32:47.942Z,98381.08
2022-11-22T04:35:38.599Z,98382.73
2022-11-22T04:38:28.665Z,98378.73
2022-11-22T04:41:18.357Z,98381.14
2022-11-22T04:44:26.994Z,98386.92
2022-11-22T04:47:39.485Z,98394.84
2022-11-22T04:50:49.062Z,98404.05
2022-11-22T04:53:38.906Z,98406.38
2022-11-22T04:56:28.611Z,98409.75
2022-11-22T04:59:18.298Z,98411.69
2022-11-22T05:02:07.929Z,98417.50
2022-11-22T05:04:57.540Z,98427.78
2022-11-22T05:07:47.147Z,98432.14
2022-11-22T05:10:52.230Z,98434.68
2022-11-22T05:13:43.327Z,98442.23
2022-11-22T05:16:32.955Z,98449.11
2022-11-22T05:19:22.614Z,98458.84
2022-11-22T05:22:14.743Z,98465.36
2022-11-22T05:25:04.938Z,98465.30
2022-11-22T05:27:56.478Z,98473.73
2022-11-22T05:30:46.178Z,98476.65
2022-11-22T05:33:38.758Z,98484.01
2022-11-22T05:36:32.357Z,98486.20
2022-11-22T05:39:21.887Z,98489.67
2022-11-22T05:42:11.558Z,98499.64
2022-11-22T05:45:01.167Z,98506.48
2022-11-22T05:47:53.464Z,98505.63
2022-11-22T05:50:45.383Z,98505.88
2022-11-22T05:53:36.225Z,98509.52
2022-11-22T05:56:26.073Z,98511.29
2022-11-22T05:59:17.150Z,98521.25
2022-11-22T06:02:06.929Z,98530.91
2022-11-22T06:04:56.818Z,98534.42
2022-11-22T06:07:47.511Z,98532.08
2022-11-22T06:10:38.736Z,98531.91
2022-11-22T06:13:28.458Z,98535.52
2022-11-22T06:16:18.629Z,98528.25
2022-11-22T06:19:09.991Z,98523.86
2022-11-22T06:22:03.994Z,98523.63
2022-11-22T06:24:53.690Z,98527.42
2022-11-22T06:27:43.528Z,98532.35
2022-11-22T06:30:33.043Z,98535.91
2022-11-22T06:33:22.861Z,98540.61
2022-11-22T06:36:14.810Z,98538.42
2022-11-22T06:39:04.717Z,98533.99
2022-11-22T06:41:54.894Z,98538.36
2022-11-22T06:44:44.749Z,98546.35
2022-11-22T06:47:34.666Z,98550.31
2022-11-22T06:50:24.487Z,98552.91
2022-11-22T06:53:39.402Z,98555.42
2022-11-22T06:56:28.320Z,98570.91
2022-11-22T06:59:21.402Z,98584.98
2022-11-22T07:02:12.997Z,98596.40
2022-11-22T07:08:15.394Z,98606.05
2022-11-22T07:11:06.433Z,98615.88
2022-11-22T07:14:01.851Z,98634.23
2022-11-22T07:16:55.379Z,98640.84
2022-11-22T07:19:45.306Z,98643.91
2022-11-22T07:22:34.940Z,98652.46
2022-11-22T07:25:26.556Z,98662.23
2022-11-22T07:28:16.836Z,98660.36
2022-11-22T07:31:08.451Z,98652.74
2022-11-22T07:33:58.519Z,98649.66
2022-11-22T07:36:48.476Z,98651.39
2022-11-22T07:39:38.760Z,98651.02
2022-11-22T07:42:28.279Z,98655.61
2022-11-22T07:45:18.452Z,98659.16
2022-11-22T07:48:07.913Z,98662.98
2022-11-22T07:50:57.606Z,98666.20
2022-11-22T07:53:47.507Z,98667.39
2022-11-22T07:56:37.480Z,98664.95
2022-11-22T07:59:27.435Z,98670.08
2022-11-22T08:02:17.080Z,98677.15
2022-11-22T08:05:08.156Z,98681.73
2022-11-22T08:07:57.928Z,98684.40
2022-11-22T08:10:49.939Z,98689.46
2022-11-22T08:13:40.237Z,98700.84
2022-11-22T08:16:29.703Z,98711.15
2022-11-22T08:19:19.939Z,98717.89
2022-11-22T08:22:09.692Z,98722.11
2022-11-22T08:24:59.333Z,98724.94
2022-11-22T08:27:48.955Z,98731.36
2022-11-22T08:30:38.674Z,98734.62
2022-11-22T08:33:28.639Z,98729.83
2022-11-22T08:36:18.499Z,98737.59
2022-11-22T08:39:09.327Z,98744.13
2022-11-22T08:41:58.912Z,98748.55
2022-11-22T08:44:48.555Z,98752.60
2022-11-22T08:47:38.356Z,98750.98
2022-11-22T08:50:28.363Z,98746.41
2022-11-22T08:53:17.967Z,98744.24
2022-11-22T08:56:10.647Z,98741.80
2022-11-22T08:59:00.126Z,98742.14
2022-11-22T09:01:49.813Z,98739.10
2022-11-22T09:04:39.957Z,98738.12
2022-11-22T09:10:39.058Z,98745.00
2022-11-22T09:13:28.663Z,98750.66
2022-11-22T09:16:19.797Z,98747.64
2022-11-22T09:19:11.673Z,98744.36
2022-11-22T09:22:01.300Z,98742.63
2022-11-22T09:24:50.823Z,98743.03
2022-11-22T09:27:40.616Z,98753.68
2022-11-22T09:30:30.813Z,98754.29
2022-11-22T09:33:20.748Z,98750.48
2022-11-22T09:36:12.208Z,98743.08
2022-11-22T09:39:01.918Z,98743.81
2022-11-22T09:42:22.311Z,98747.98
2022-11-22T09:45:35.106Z,98751.54
2022-11-22T09:48:51.122Z,98750.59
2022-11-22T09:51:46.278Z,98749.95
2022-11-22T09:54:42.676Z,98758.52
2022-11-22T09:57:37.651Z,98762.00
2022-11-22T10:00:29.479Z,98765.77
2022-11-22T10:03:24.659Z,98771.73
2022-11-22T10:06:19.692Z,98773.91
2022-11-22T10:09:22.639Z,98775.98
2022-11-22T10:12:16.977Z,98778.88
2022-11-22T10:15:14.555Z,98776.84
2022-11-22T10:18:11.539Z,98780.06
2022-11-22T10:21:01.115Z,98781.07
2022-11-22T10:23:50.644Z,98780.02
2022-11-22T10:26:43.324Z,98781.04
2022-11-22T10:29:42.490Z,98785.25
2022-11-22T10:32:38.068Z,98785.07
2022-11-22T10:35:44.028Z,98792.77
2022-11-22T10:38:47.434Z,98792.18
2022-11-22T10:41:49.748Z,98794.08
2022-11-22T10:44:51.886Z,98796.05
2022-11-22T10:47:54.445Z,98790.73
2022-11-22T10:50:57.436Z,98780.86
2022-11-22T10:54:03.327Z,98777.88
2022-11-22T10:56:58.270Z,98780.04
2022-11-22T11:00:00.156Z,98782.61
2022-11-22T11:03:05.507Z,98788.73
2022-11-22T11:06:21.678Z,98795.61
2022-11-22T11:10:09.308Z,98796.04
2022-11-22T11:12:36.930Z,98795.98
2022-11-22T11:15:36.533Z,98797.14
2022-11-22T11:18:33.971Z,98797.35
2022-11-22T11:21:23.453Z,98801.67
2022-11-22T11:24:17.163Z,98800.39
2022-11-22T11:27:09.225Z,98806.29
2022-11-22T11:30:03.213Z,98816.86
2022-11-22T11:32:54.632Z,98824.70
2022-11-22T11:35:45.992Z,98823.80
2022-11-22T11:38:48.326Z,98824.27
2022-11-22T11:41:43.294Z,98826.00
2022-11-22T11:44:35.822Z,98826.55
2022-11-22T11:47:35.325Z,98827.81
2022-11-22T11:50:27.222Z,98821.17
2022-11-22T11:53:25.549Z,98829.30
2022-11-22T11:56:45.697Z,98836.66
2022-11-22T11:59:46.119Z,98836.77
2022-11-22T12:02:41.621Z,98834.45
2022-11-22T12:05:34.666Z,98841.77
2022-11-22T12:08:34.771Z,98843.13
2022-11-22T12:11:32.149Z,98846.86
2022-11-22T12:14:42.662Z,98847.39
2022-11-22T12:17:44.166Z,98848.84
2022-11-22T12:20:43.730Z,98848.02
2022-11-22T12:23:39.680Z,98846.83
2022-11-22T12:26:29.702Z,98844.24
2022-11-22T12:29:18.830Z,98842.69
2022-11-22T12:32:12.781Z,98837.95
2022-11-22T12:35:09.385Z,98839.56
2022-11-22T12:38:09.147Z,98833.01
2022-11-22T12:41:02.036Z,98829.85
2022-11-22T12:43:54.729Z,98823.98
2022-11-22T12:46:46.966Z,98828.80
2022-11-22T12:49:39.997Z,98832.13
2022-11-22T12:52:39.542Z,98831.65
2022-11-22T12:55:36.401Z,98828.85
2022-11-22T12:58:37.846Z,98829.17
2022-11-22T13:01:33.029Z,98821.98
2022-11-22T13:04:30.534Z,98822.05
2022-11-22T13:07:28.066Z,98820.77
2022-11-22T13:10:26.484Z,98822.27
2022-11-22T13:13:23.087Z,98820.17
2022-11-22T13:16:13.507Z,98823.38
2022-11-22T13:19:04.014Z,98820.55
2022-11-22T13:22:07.727Z,98826.05
2022-11-22T13:25:13.210Z,98823.25
2022-11-22T13:28:11.875Z,98818.94
2022-11-22T13:31:16.372Z,98818.23
2022-11-22T13:34:28.078Z,98819.19
2022-11-22T13:37:18.521Z,98820.42
2022-11-22T13:40:23.144Z,98826.09
2022-11-22T13:43:50.472Z,98834.25
2022-11-22T13:47:01.854Z,98841.36
2022-11-22T13:49:53.404Z,98841.46
2022-11-22T13:52:53.288Z,98843.16
2022-11-22T13:55:42.858Z,98846.73
2022-11-22T13:58:55.485Z,98849.23
2022-11-22T14:02:00.146Z,98845.45
2022-11-22T14:04:55.331Z,98838.90
2022-11-22T14:07:46.023Z,98837.71
2022-11-22T14:10:47.519Z,98833.41
2022-11-22T14:13:51.792Z,98829.48
2022-11-22T14:16:53.769Z,98823.94
2022-11-22T14:19:58.432Z,98812.71
2022-11-22T14:22:55.969Z,98809.03
2022-11-22T14:26:08.097Z,98804.95
2022-11-22T14:29:28.090Z,98800.25
2022-11-22T14:32:21.075Z,98793.48
2022-11-22T14:35:24.873Z,98796.30
2022-11-22T14:38:33.058Z,98789.84
2022-11-22T14:41:43.913Z,98788.39
2022-11-22T14:44:36.886Z,98780.77
2022-11-22T14:47:29.789Z,98774.39
2022-11-22T14:50:26.069Z,98775.67
2022-11-22T14:53:43.140Z,98777.64
2022-11-22T14:56:34.824Z,98772.79
2022-11-22T14:59:51.773Z,98768.16
2022-11-22T15:03:28.745Z,98764.73
2022-11-22T15:09:10.287Z,98761.80
2022-11-22T15:09:57.313Z,98761.23
2022-11-22T15:13:08.871Z,98759.15
2022-11-22T15:58:32.909Z,98762.98
2022-11-22T16:01:22.932Z,98768.95
2022-11-22T16:04:22.470Z,98766.36
2022-11-22T16:07:25.310Z,98769.08
2022-11-22T16:10:22.255Z,98772.20
2022-11-22T16:13:27.525Z,98778.51
2022-11-22T16:16:26.591Z,98782.69
2022-11-22T16:19:22.029Z,98786.75
2022-11-22T16:22:29.367Z,98781.77
2022-11-22T16:25:32.998Z,98779.27
2022-11-22T16:28:32.290Z,98779.07
2022-11-22T16:31:24.321Z,98781.17
2022-11-22T16:34:14.970Z,98780.77
2022-11-22T16:37:28.942Z,98783.52
2022-11-22T16:40:20.344Z,98778.96
2022-11-22T16:43:16.047Z,98776.67
2022-11-22T16:46:05.795Z,98780.38
2022-11-22T16:48:56.232Z,98774.34
2022-11-22T16:51:46.008Z,98778.20
2022-11-22T16:54:35.743Z,98775.48
2022-11-22T16:57:25.493Z,98777.11
2022-11-22T17:00:17.044Z,98777.23
2022-11-22T17:03:08.952Z,98775.55
2022-11-22T17:05:58.542Z,98773.94
2022-11-22T17:08:49.738Z,98773.16
2022-11-22T17:11:39.451Z,98770.33
2022-11-22T17:14:30.118Z,98765.12
2022-11-22T17:17:21.141Z,98761.59
2022-11-22T17:20:12.110Z,98761.66
2022-11-22T17:23:02.114Z,98761.85
2022-11-22T17:25:52.315Z,98763.73
2022-11-22T17:28:44.486Z,98764.15
2022-11-22T17:31:34.203Z,98761.94
2022-11-22T17:34:23.987Z,98763.97
2022-11-22T17:37:14.774Z,98763.36
2022-11-22T17:40:05.795Z,98757.96
2022-11-22T17:42:55.433Z,98750.58
2022-11-22T17:45:45.298Z,98746.41
2022-11-22T17:48:35.523Z,98741.54
2022-11-22T17:51:25.911Z,98741.25
2022-11-22T17:54:15.771Z,98742.77
2022-11-22T17:57:05.635Z,98734.83
2022-11-22T17:59:55.299Z,98732.08
2022-11-22T18:02:47.344Z,98729.80
2022-11-22T18:05:37.040Z,98726.89
2022-11-22T18:08:26.969Z,98722.06
2022-11-22T18:11:17.371Z,98721.38
2022-11-22T18:14:07.025Z,98715.33
2022-11-22T18:16:57.136Z,98716.79
2022-11-22T18:19:47.455Z,98715.52
2022-11-22T18:22:37.137Z,98713.70
2022-11-22T18:25:26.744Z,98714.50
2022-11-22T18:28:17.333Z,98714.88
2022-11-22T18:31:07.016Z,98715.08
2022-11-22T18:33:56.654Z,98709.76
2022-11-22T18:36:56.372Z,98701.74
2022-11-22T18:39:50.477Z,98695.39
2022-11-22T18:42:40.163Z,98689.56
2022-11-22T18:45:30.387Z,98689.41
2022-11-22T18:48:19.971Z,98690.98
2022-11-22T18:51:11.395Z,98690.19
2022-11-22T18:54:01.018Z,98683.73
2022-11-22T18:56:50.901Z,98681.67
2022-11-22T18:59:41.495Z,98677.71
2022-11-22T19:02:33.697Z,98676.75
2022-11-22T19:05:24.584Z,98671.88
2022-11-22T19:08:14.086Z,98662.06
2022-11-22T19:11:04.729Z,98652.47
2022-11-22T19:13:54.548Z,98654.19
2022-11-22T19:16:44.231Z,98657.63
2022-11-22T19:19:34.445Z,98660.63
2022-11-22T19:22:24.422Z,98666.58
2022-11-22T19:25:14.119Z,98666.15
2022-11-22T19:28:03.969Z,98670.91
2022-11-22T19:30:53.965Z,98673.22
2022-11-22T19:33:44.176Z,98672.90
2022-11-22T19:36:35.665Z,98667.89
2022-11-22T19:39:26.481Z,98664.95
2022-11-22T19:42:18.753Z,98652.27
2022-11-22T19:45:09.481Z,98641.92
2022-11-22T19:47:59.091Z,98645.95
2022-11-22T19:50:51.306Z,98634.54
2022-11-22T19:53:41.864Z,98631.77
2022-11-22T19:56:31.375Z,98637.67
2022-11-22T19:59:21.097Z,98638.16
2022-11-22T20:02:12.804Z,98636.69
2022-11-22T20:05:02.862Z,98635.60
2022-11-22T20:07:52.606Z,98635.98
2022-11-22T20:10:42.168Z,98635.14
2022-11-22T20:13:34.088Z,98634.48
2022-11-22T20:16:25.014Z,98635.33
2022-11-22T20:19:15.150Z,98641.58
2022-11-22T20:22:05.133Z,98639.25
2022-11-22T20:24:54.815Z,98635.30
2022-11-22T20:27:44.528Z,98626.11
2022-11-22T20:30:34.630Z,98616.13
2022-11-22T20:33:24.277Z,98606.46
2022-11-22T20:36:15.579Z,98599.27
2022-11-22T20:39:10.317Z,98591.05
2022-11-22T20:42:32.112Z,98578.35
2022-11-22T20:45:11.306Z,98568.54
2022-11-22T20:48:01.283Z,98564.88
2022-11-22T20:50:52.007Z,98559.28
2022-11-22T20:53:42.691Z,98552.34
2022-11-22T20:56:31.093Z,98549.39
2022-11-22T20:59:20.800Z,98538.59
2022-11-22T21:02:11.071Z,98529.86
2022-11-22T21:05:00.791Z,98527.38
2022-11-22T21:07:53.390Z,98529.45
2022-11-22T21:10:43.097Z,98525.39
2022-11-22T21:13:33.160Z,98523.20
2022-11-22T21:16:25.062Z,98524.08
2022-11-22T21:19:14.831Z,98525.98
2022-11-22T21:22:04.316Z,98529.41
2022-11-22T21:24:53.856Z,98523.72
2022-11-22T21:27:43.389Z,98520.19
2022-11-22T21:30:32.839Z,98527.14
2022-11-22T21:33:22.581Z,98521.30
2022-11-22T21:36:12.348Z,98510.95
2022-11-22T21:39:02.041Z,98512.45
2022-11-22T21:41:54.677Z,98507.75
2022-11-22T21:44:44.092Z,98509.30
2022-11-22T21:47:33.531Z,98509.55
2022-11-22T21:50:22.912Z,98500.68
2022-11-22T21:53:12.753Z,98494.73
2022-11-22T21:56:03.336Z,98493.88
2022-11-22T21:58:53.242Z,98489.11
2022-11-22T22:01:42.730Z,98497.99
2022-11-22T22:04:32.226Z,98515.08
2022-11-22T22:07:44.521Z,98517.83
2022-11-22T22:10:31.338Z,98518.63
2022-11-22T22:13:20.674Z,98517.27
2022-11-22T22:16:15.031Z,98513.54
2022-11-22T22:19:09.475Z,98517.36
2022-11-22T22:21:59.045Z,98496.70
2022-11-22T22:24:48.635Z,98488.14
2022-11-22T22:27:41.087Z,98487.27
2022-11-22T22:30:30.652Z,98496.34
2022-11-22T22:33:20.281Z,98500.90
2022-11-22T22:36:11.469Z,98493.65
2022-11-22T22:39:01.191Z,98479.61
2022-11-22T22:41:50.710Z,98459.52
2022-11-22T22:44:40.299Z,98442.81
2022-11-22T22:47:31.508Z,98437.99
2022-11-22T22:50:21.411Z,98438.17
2022-11-22T22:53:11.179Z,98435.34
2022-11-22T22:56:01.105Z,98420.11
2022-11-22T22:58:54.829Z,98421.09
2022-11-22T23:01:44.015Z,98404.55
2022-11-22T23:04:33.642Z,98384.27
2022-11-22T23:07:23.280Z,98378.69
2022-11-22T23:10:12.828Z,98378.80
2022-11-22T23:13:02.400Z,98372.06
2022-11-22T23:15:58.738Z,98356.63
2022-11-22T23:18:48.546Z,98343.61
2022-11-22T23:21:38.358Z,98334.70
2022-11-22T23:24:30.846Z,98315.67
2022-11-22T23:27:20.285Z,98311.55
2022-11-22T23:30:11.387Z,98306.36
2022-11-22T23:33:01.169Z,98294.14
2022-11-22T23:35:53.383Z,98298.95
2022-11-22T23:38:43.178Z,98312.40
2022-11-22T23:41:32.613Z,98317.16
2022-11-22T23:44:22.080Z,98308.70
2022-11-22T23:47:12.369Z,98296.70
2022-11-22T23:50:01.749Z,98280.08
2022-11-22T23:52:56.145Z,98276.86
2022-11-22T23:55:45.460Z,98268.73
2022-11-22T23:58:35.406Z,98257.41
